Time;durP1;ratioP1;P1;durP2;ratioP2;P2;SDS_P1;SDS_P2;PMS_P1;PMS_P2;Temp;Humidity;BMP_temperature;BMP_pressure;BME280_temperature;BME280_humidity;BME280_pressure;Samples;Min_cycle;Max_cycle;Signal;HPM_P1;HPM_P2
2021/09/30 00:00:58;;;;;;;;;;;12.00;99.90;;;10.89;90.13;96616.03;10528234;28;2011;-77
2021/09/30 00:06:01;;;;;;;;;;;12.00;99.90;;;10.91;90.57;96616.59;10523087;28;2160;-78
2021/09/30 00:11:08;;;;;;;;;;;11.90;99.90;;;10.88;89.99;96614.41;10520274;28;2102;-76
2021/09/30 00:16:31;;;;;;;;;;;11.90;99.90;;;10.91;87.76;96619.28;10537883;28;2070;-77
2021/09/30 00:48:38;;;;;;;;;;;11.80;99.90;;;10.71;86.83;96631.47;10549048;28;2210;-78
2021/09/30 00:54:12;;;;;;;;;;;11.70;99.90;;;10.67;86.00;96629.53;10541932;28;2052;-78
2021/09/30 02:18:13;;;;;;;;;;;11.40;99.90;;;10.38;86.26;96677.34;10532792;28;1498;-77
2021/09/30 02:21:03;;;;;;;;;;;11.30;99.90;;;10.27;86.21;96689.81;10537377;28;1498;-78
2021/09/30 02:26:18;;;;;;;;;;;11.30;99.90;;;10.22;87.75;96698.59;10537409;28;1446;-78
2021/09/30 02:58:15;;;;;;;;;;;11.10;99.90;;;10.16;89.46;96726.44;10524872;28;1892;-78
2021/09/30 03:03:21;;;;;;;;;;;11.10;99.90;;;10.16;88.88;96723.75;10528735;28;1957;-77
2021/09/30 03:08:23;;;;;;;;;;;11.10;99.90;;;10.21;88.49;96723.03;10527646;28;1909;-78
2021/09/30 03:13:26;;;;;;;;;;;11.20;99.90;;;9.98;87.91;96729.41;10530137;28;2004;-76
2021/09/30 03:18:48;;;;;;;;;;;11.10;99.90;;;9.80;90.09;96726.97;10531315;28;1956;-78
2021/09/30 03:23:51;;;;;;;;;;;11.00;99.90;;;9.79;89.23;96736.09;10531682;28;2000;-76
2021/09/30 03:28:53;;;;;;;;;;;10.90;99.90;;;9.74;88.81;96740.34;10527217;28;1862;-77
2021/09/30 03:33:56;;;;;;;;;;;10.90;99.90;;;9.68;89.31;96740.50;10531514;28;2098;-78
2021/09/30 03:38:59;;;;;;;;;;;10.80;99.90;;;9.66;89.50;96735.34;10540890;28;1909;-78
2021/09/30 03:44:02;;;;;;;;;;;10.80;99.90;;;9.67;89.28;96733.47;10541225;28;1913;-78
2021/09/30 03:49:09;;;;;;;;;;;10.80;99.90;;;9.64;89.39;96740.16;10522848;28;1905;-77
2021/09/30 03:54:16;;;;;;;;;;;10.80;99.90;;;9.55;89.65;96741.63;10520971;28;2026;-77
2021/09/30 03:59:22;;;;;;;;;;;10.70;99.90;;;9.62;89.58;96741.47;10524028;28;1900;-76
2021/09/30 04:04:26;;;;;;;;;;;10.70;99.90;;;9.72;89.84;96742.44;10532699;28;2015;-78
2021/09/30 04:09:29;;;;;;;;;;;10.70;99.90;;;9.86;89.28;96742.09;10517737;28;1979;-79
2021/09/30 04:14:32;;;;;;;;;;;10.80;99.90;;;9.87;88.99;96747.25;10537281;28;1952;-78
2021/09/30 04:19:35;;;;;;;;;;;10.90;99.90;;;9.81;88.93;96753.59;10561921;28;1884;-78
2021/09/30 04:24:39;;;;;;;;;;;10.90;99.90;;;9.79;89.57;96757.56;10537509;28;1849;-78
2021/09/30 04:29:42;;;;;;;;;;;10.90;99.90;;;9.78;90.69;96764.00;10528950;28;2082;-77
2021/09/30 04:34:45;;;;;;;;;;;10.90;99.90;;;9.80;90.89;96765.41;10522411;28;1917;-77
2021/09/30 04:39:48;;;;;;;;;;;10.90;99.90;;;9.76;91.15;96769.63;10525794;28;1897;-77
2021/09/30 04:44:54;;;;;;;;;;;10.80;99.90;;;9.67;91.56;96766.53;10527761;28;1964;-78
2021/09/30 04:49:57;;;;;;;;;;;10.80;99.90;;;9.56;92.69;96767.41;10528368;28;1914;-78
2021/09/30 04:54:59;;;;;;;;;;;10.70;99.90;;;9.50;93.44;96765.69;10527573;28;1928;-78
2021/09/30 05:00:02;;;;;;;;;;;10.70;99.90;;;9.47;93.78;96771.53;10536128;28;2118;-78
2021/09/30 05:05:05;;;;;;;;;;;10.60;99.90;;;9.42;93.68;96774.97;10533399;28;1889;-78
2021/09/30 05:10:11;;;;;;;;;;;10.60;99.90;;;9.45;94.02;96773.66;10535367;28;1974;-77
2021/09/30 05:15:31;;;;;;;;;;;10.60;99.90;;;9.54;92.95;96772.19;10523612;28;2101;-77
2021/09/30 05:20:34;;;;;;;;;;;10.60;99.90;;;9.51;92.08;96772.69;10531099;28;1600;-77
2021/09/30 05:25:37;;;;;;;;;;;10.60;99.90;;;9.42;92.83;96769.59;10530361;28;1915;-77
2021/09/30 05:30:39;;;;;;;;;;;10.60;99.90;;;9.33;93.46;96771.03;10534563;28;1976;-77
2021/09/30 05:35:42;;;;;;;;;;;10.50;99.90;;;9.26;93.73;96764.19;10550590;28;1876;-78
2021/09/30 05:40:48;;;;;;;;;;;10.50;99.90;;;9.27;93.62;96776.53;10537797;28;1918;-77
2021/09/30 05:45:54;;;;;;;;;;;10.40;99.90;;;9.28;93.42;96772.81;10534650;28;1825;-77
2021/09/30 05:50:57;;;;;;;;;;;10.40;99.90;;;9.27;93.37;96776.53;10527047;28;1914;-76
2021/09/30 05:55:59;;;;;;;;;;;10.40;99.90;;;9.34;92.82;96777.22;10524843;28;1933;-77
2021/09/30 06:01:10;;;;;;;;;;;10.40;99.90;;;9.41;92.10;96777.88;10534777;28;2034;-77
2021/09/30 06:11:45;;;;;;;;;;;10.60;99.90;;;9.80;90.50;96781.50;10526157;28;1959;-77
2021/09/30 06:16:50;;;;;;;;;;;10.70;99.90;;;9.85;90.13;96797.69;10528869;28;1961;-77
2021/09/30 06:22:07;;;;;;;;;;;10.80;99.90;;;9.77;90.40;96787.34;10530175;28;1861;-77
2021/09/30 06:27:09;;;;;;;;;;;10.80;99.90;;;9.75;90.33;96794.84;10529566;28;1872;-77
2021/09/30 06:32:13;;;;;;;;;;;10.80;99.90;;;9.99;89.07;96792.84;10529337;28;1959;-78
2021/09/30 06:37:16;;;;;;;;;;;10.90;99.90;;;10.10;87.55;96805.34;10535613;28;2199;-78
2021/09/30 06:42:19;;;;;;;;;;;11.00;99.90;;;10.04;87.09;96803.63;10541619;28;1985;-80
2021/09/30 06:47:21;;;;;;;;;;;11.00;99.90;;;10.01;86.63;96804.13;10534102;28;1914;-76
2021/09/30 06:52:25;;;;;;;;;;;11.00;99.90;;;10.18;85.49;96804.09;10524200;28;2029;-78
2021/09/30 06:57:28;;;;;;;;;;;11.10;99.90;;;10.29;84.34;96798.69;10527200;28;2417;-77
2021/09/30 07:02:31;;;;;;;;;;;11.20;99.90;;;10.33;80.59;96803.56;10538065;28;1947;-75
2021/09/30 07:07:34;;;;;;;;;;;11.30;99.90;;;10.29;81.09;96805.94;10525965;28;1828;-76
2021/09/30 07:12:37;;;;;;;;;;;11.30;99.90;;;10.48;81.27;96809.16;10528686;28;1929;-76
2021/09/30 07:17:40;;;;;;;;;;;11.40;99.90;;;10.47;80.13;96812.91;10537397;28;1896;-79
2021/09/30 07:22:43;;;;;;;;;;;11.40;99.90;;;10.62;77.97;96821.19;10545631;28;1915;-81
2021/09/30 07:27:46;;;;;;;;;;;11.50;99.90;;;10.47;76.90;96818.28;10529522;28;1864;-74
2021/09/30 07:32:48;;;;;;;;;;;11.40;99.90;;;10.55;76.33;96815.16;10521394;28;1971;-76
2021/09/30 07:37:51;;;;;;;;;;;11.40;99.90;;;10.61;76.39;96822.25;10516499;28;1907;-75
2021/09/30 07:42:54;;;;;;;;;;;11.50;99.90;;;11.06;74.94;96827.41;10519788;28;1919;-76
2021/09/30 07:47:57;;;;;;;;;;;11.60;99.90;;;11.26;72.17;96826.84;10528977;28;1943;-77
2021/09/30 07:53:00;;;;;;;;;;;12.00;99.90;;;11.62;68.61;96824.50;10523459;28;1913;-74
2021/09/30 07:58:03;;;;;;;;;;;12.30;99.90;;;11.98;70.69;96823.00;10518008;28;1825;-73
2021/09/30 08:03:06;;;;;;;;;;;12.50;99.90;;;12.11;69.64;96821.75;10515382;28;1959;-70
2021/09/30 08:08:09;;;;;;;;;;;12.70;99.90;;;12.40;69.27;96825.72;10520834;28;1840;-74
2021/09/30 08:13:12;;;;;;;;;;;13.00;99.90;;;12.32;67.12;96828.91;10520248;28;1985;-74
2021/09/30 08:18:15;;;;;;;;;;;13.10;99.90;;;12.05;67.59;96820.09;10505458;28;2148;-72
2021/09/30 08:23:18;;;;;;;;;;;13.10;99.90;;;12.28;65.51;96827.84;10513413;28;1977;-75
2021/09/30 08:28:21;;;;;;;;;;;13.00;99.90;;;12.80;62.92;96827.06;10519120;28;1869;-76
2021/09/30 08:33:25;;;;;;;;;;;13.20;99.90;;;13.48;61.20;96819.00;10522715;28;1914;-74
2021/09/30 08:38:27;;;;;;;;;;;13.60;99.90;;;13.64;58.56;96817.97;10530348;28;1868;-75
2021/09/30 08:43:30;;;;;;;;;;;14.20;99.90;;;13.33;56.95;96825.16;10538806;28;1893;-74
2021/09/30 08:48:33;;;;;;;;;;;14.10;99.90;;;12.82;58.48;96822.22;10527785;28;2059;-74
2021/09/30 08:53:37;;;;;;;;;;;13.80;99.90;;;12.47;61.89;96817.44;10535701;28;1979;-74
2021/09/30 08:58:39;;;;;;;;;;;13.50;99.90;;;12.85;60.86;96823.56;10533548;28;1884;-76
2021/09/30 09:03:44;;;;;;;;;;;13.50;99.90;;;12.84;60.55;96828.16;10531659;28;1844;-75
2021/09/30 09:08:48;;;;;;;;;;;13.50;99.90;;;13.14;58.12;96829.38;10528804;28;1880;-74
2021/09/30 09:13:52;;;;;;;;;;;13.60;99.90;;;13.92;56.23;96822.03;10532639;28;1935;-74
2021/09/30 09:18:55;;;;;;;;;;;14.00;99.90;;;14.20;55.11;96820.72;10527412;28;1940;-72
2021/09/30 09:23:58;;;;;;;;;;;14.70;99.90;;;14.22;53.95;96812.31;10525717;28;1880;-75
2021/09/30 09:29:01;;;;;;;;;;;15.00;99.90;;;14.25;54.44;96819.88;10528534;28;2046;-74
2021/09/30 09:34:04;;;;;;;;;;;15.00;99.90;;;13.82;55.26;96813.13;10525528;28;1910;-74
2021/09/30 09:39:07;;;;;;;;;;;14.80;99.90;;;13.49;56.22;96816.03;10509379;28;1908;-75
2021/09/30 09:44:10;;;;;;;;;;;14.60;99.90;;;13.23;57.83;96815.16;10525922;28;1919;-72
2021/09/30 09:49:14;;;;;;;;;;;14.20;99.90;;;12.89;59.28;96816.59;10523414;28;1931;-71
2021/09/30 09:54:17;;;;;;;;;;;13.90;99.90;;;13.21;57.58;96811.09;10517719;28;1954;-71
2021/09/30 09:59:19;;;;;;;;;;;14.00;99.90;;;13.05;55.93;96809.38;10527279;28;1946;-73
2021/09/30 10:04:22;;;;;;;;;;;14.00;99.90;;;13.08;57.18;96808.84;10524356;28;1895;-73
2021/09/30 10:09:26;;;;;;;;;;;14.00;99.90;;;13.18;56.01;96795.41;10539787;28;1837;-80
2021/09/30 10:14:29;;;;;;;;;;;13.90;99.90;;;13.30;55.47;96795.19;10547430;28;1907;-81
2021/09/30 10:19:32;;;;;;;;;;;14.00;99.90;;;13.59;51.13;96782.81;10533100;28;2081;-79
2021/09/30 10:24:35;;;;;;;;;;;14.30;99.90;;;14.14;50.82;96775.03;10538774;28;1896;-79
2021/09/30 10:29:38;;;;;;;;;;;14.50;99.90;;;14.87;48.44;96767.28;10535572;28;1892;-80
2021/09/30 10:34:41;;;;;;;;;;;15.00;99.90;;;14.64;48.78;96757.91;10538830;28;2005;-79
2021/09/30 10:39:47;;;;;;;;;;;15.30;99.90;;;14.15;49.03;96773.94;10539986;28;1956;-80
2021/09/30 10:44:50;;;;;;;;;;;15.30;99.90;;;14.25;47.29;96773.91;10569955;28;1980;-79
2021/09/30 10:49:53;;;;;;;;;;;15.10;99.90;;;14.20;50.44;96766.63;10540512;28;1910;-80
2021/09/30 10:54:56;;;;;;;;;;;15.10;99.90;;;14.74;48.85;96754.34;10541953;28;1983;-80
2021/09/30 10:59:59;;;;;;;;;;;15.30;99.90;;;14.53;48.75;96759.84;10544175;28;1908;-80
2021/09/30 11:05:12;;;;;;;;;;;15.40;99.90;;;14.26;48.14;96770.94;10551240;28;1709;-80
2021/09/30 11:10:15;;;;;;;;;;;15.20;99.90;;;14.41;48.34;96751.16;10542776;28;1914;-79
2021/09/30 11:15:18;;;;;;;;;;;15.20;99.90;;;14.56;48.30;96736.81;10535955;28;1909;-79
2021/09/30 11:20:21;;;;;;;;;;;15.30;99.90;;;14.03;48.44;96733.66;10552810;28;1929;-80
2021/09/30 11:25:24;;;;;;;;;;;15.20;99.90;;;14.00;49.16;96718.81;10539768;28;1830;-79
2021/09/30 11:30:27;;;;;;;;;;;15.00;99.90;;;14.13;51.07;96732.84;10538871;28;1940;-79
2021/09/30 11:35:29;;;;;;;;;;;15.00;99.90;;;14.20;49.93;96728.78;10537799;28;1958;-76
2021/09/30 11:40:32;;;;;;;;;;;15.00;99.90;;;14.45;49.23;96722.50;10527863;28;1864;-78
2021/09/30 11:45:35;;;;;;;;;;;15.20;99.90;;;14.29;49.25;96715.50;10537935;28;1927;-79
2021/09/30 11:50:38;;;;;;;;;;;15.20;99.90;;;15.06;47.56;96699.78;10537564;28;1907;-79
2021/09/30 11:55:44;;;;;;;;;;;15.50;99.90;;;14.83;46.74;96691.25;10542282;28;1975;-80
2021/09/30 12:00:47;;;;;;;;;;;15.60;99.90;;;14.80;46.89;96683.69;10538980;28;1842;-78
2021/09/30 12:05:54;;;;;;;;;;;15.70;99.90;;;15.16;46.78;96677.28;10541248;28;1856;-78
2021/09/30 12:10:57;;;;;;;;;;;15.80;99.90;;;15.62;45.93;96680.50;10541576;28;1875;-79
2021/09/30 12:16:00;;;;;;;;;;;16.20;99.90;;;15.48;46.09;96676.78;10544616;28;2005;-83
2021/09/30 12:21:03;;;;;;;;;;;16.30;99.90;;;15.56;45.45;96662.63;10546523;28;2043;-80
2021/09/30 12:26:06;;;;;;;;;;;16.40;99.90;;;15.46;45.34;96660.81;10546222;28;1944;-81
2021/09/30 12:31:09;;;;;;;;;;;16.30;99.90;;;15.64;46.03;96648.47;10553477;28;1919;-79
2021/09/30 12:36:12;;;;;;;;;;;16.40;99.90;;;14.71;47.84;96650.19;10567215;28;1959;-77
2021/09/30 12:41:14;;;;;;;;;;;16.00;99.90;;;14.74;48.49;96632.56;10556832;28;1897;-77
2021/09/30 12:46:19;;;;;;;;;;;15.70;99.90;;;14.36;48.86;96629.47;10561123;28;1916;-78
2021/09/30 12:51:22;;;;;;;;;;;15.40;99.90;;;14.43;49.47;96624.56;10559875;28;1728;-80
2021/09/30 12:56:24;;;;;;;;;;;15.40;99.90;;;14.53;48.75;96623.75;10570732;28;1886;-79
2021/09/30 13:01:28;;;;;;;;;;;15.40;99.90;;;14.68;47.23;96612.84;10562805;28;1889;-78
2021/09/30 13:06:31;;;;;;;;;;;15.60;99.90;;;14.47;48.51;96590.50;10570295;28;1886;-80
2021/09/30 13:11:34;;;;;;;;;;;15.60;99.90;;;14.54;47.94;96592.91;10569494;28;1782;-79
2021/09/30 13:16:37;;;;;;;;;;;15.40;99.90;;;14.69;48.00;96589.28;10572881;28;2008;-79
2021/09/30 13:21:40;;;;;;;;;;;15.50;99.90;;;15.58;45.20;96588.06;10576101;28;1857;-79
2021/09/30 13:26:43;;;;;;;;;;;15.90;99.90;;;15.91;45.25;96577.50;10570905;28;1881;-78
2021/09/30 13:31:46;;;;;;;;;;;16.30;99.90;;;15.28;46.32;96581.03;10575324;28;1876;-77
2021/09/30 13:36:49;;;;;;;;;;;16.50;99.90;;;15.57;45.72;96578.31;10566600;28;1902;-76
2021/09/30 13:41:52;;;;;;;;;;;16.50;99.90;;;15.47;46.28;96564.09;10578048;28;1787;-78
2021/09/30 13:46:55;;;;;;;;;;;16.50;99.90;;;15.10;47.20;96558.16;10580464;28;1830;-77
2021/09/30 13:51:57;;;;;;;;;;;16.30;99.90;;;14.73;48.75;96547.88;10567556;28;1890;-77
2021/09/30 13:57:00;;;;;;;;;;;15.90;99.90;;;14.50;49.34;96541.22;10575447;28;2052;-78
2021/09/30 14:02:03;;;;;;;;;;;15.60;99.90;;;14.22;48.99;96536.50;10576330;28;1796;-78
2021/09/30 14:07:06;;;;;;;;;;;15.40;99.90;;;14.40;50.16;96540.47;10574195;28;1840;-77
2021/09/30 14:12:09;;;;;;;;;;;15.30;99.90;;;14.59;48.84;96539.56;10580265;28;1957;-79
2021/09/30 14:17:12;;;;;;;;;;;15.40;99.90;;;14.63;48.35;96530.88;10577452;28;1789;-77
2021/09/30 14:22:16;;;;;;;;;;;15.60;99.90;;;14.71;48.32;96533.00;10580798;28;1848;-79
2021/09/30 14:27:20;;;;;;;;;;;15.60;99.90;;;14.24;48.84;96528.91;10579861;28;1757;-79
2021/09/30 14:32:23;;;;;;;;;;;15.50;99.90;;;14.35;48.75;96530.47;10579844;28;1894;-79
2021/09/30 14:37:28;;;;;;;;;;;15.30;99.90;;;14.15;48.97;96536.00;10577086;28;1861;-80
2021/09/30 14:42:33;;;;;;;;;;;15.30;99.90;;;13.93;50.15;96522.81;10554355;28;1869;-80
2021/09/30 14:47:36;;;;;;;;;;;15.10;99.90;;;13.61;51.52;96525.91;10554566;28;1965;-78
2021/09/30 14:52:39;;;;;;;;;;;14.90;99.90;;;13.73;51.29;96527.22;10568463;28;1910;-80
2021/09/30 14:57:42;;;;;;;;;;;14.80;99.90;;;13.82;52.24;96522.06;10556165;28;1876;-78
2021/09/30 15:02:44;;;;;;;;;;;14.80;99.90;;;13.77;52.39;96513.97;10555561;28;1900;-78
2021/09/30 15:07:47;;;;;;;;;;;14.80;99.90;;;13.60;52.20;96510.78;10548875;28;1884;-78
2021/09/30 15:12:50;;;;;;;;;;;14.70;99.90;;;13.74;52.50;96511.81;10538919;28;1922;-78
2021/09/30 15:17:56;;;;;;;;;;;14.70;99.90;;;13.92;51.76;96513.09;10527261;28;1912;-79
2021/09/30 15:22:59;;;;;;;;;;;14.80;99.90;;;13.60;52.36;96535.09;10561654;28;1917;-77
2021/09/30 15:28:02;;;;;;;;;;;14.80;99.90;;;13.54;54.17;96531.59;10549567;28;1848;-77
2021/09/30 15:33:06;;;;;;;;;;;14.60;99.90;;;13.24;53.69;96529.78;10550785;28;1952;-77
2021/09/30 15:38:09;;;;;;;;;;;14.40;99.90;;;13.16;53.73;96524.88;10547052;28;1861;-77
2021/09/30 15:43:12;;;;;;;;;;;14.30;99.90;;;13.14;53.82;96537.84;10547118;28;1923;-79
2021/09/30 15:48:15;;;;;;;;;;;14.20;99.90;;;13.08;53.49;96522.72;10555522;28;1898;-78
2021/09/30 15:53:19;;;;;;;;;;;14.10;99.90;;;13.02;54.86;96537.31;10563614;28;1898;-77
2021/09/30 15:58:22;;;;;;;;;;;14.10;99.90;;;13.07;54.72;96526.50;10566705;28;1641;-77
2021/09/30 16:03:24;;;;;;;;;;;14.10;99.90;;;12.95;55.57;96530.28;10559388;28;1951;-79
2021/09/30 16:08:27;;;;;;;;;;;14.00;99.90;;;12.83;55.70;96534.31;10557709;28;1814;-78
2021/09/30 16:13:30;;;;;;;;;;;13.90;99.90;;;12.64;57.42;96534.84;10557876;28;1882;-77
2021/09/30 16:18:35;;;;;;;;;;;13.80;99.90;;;12.54;56.51;96542.13;10538843;28;1877;-77
2021/09/30 16:23:39;;;;;;;;;;;13.60;99.90;;;12.43;57.92;96536.72;10551570;28;1888;-78
2021/09/30 16:28:41;;;;;;;;;;;13.60;99.90;;;12.32;58.07;96539.63;10558653;28;1826;-77
2021/09/30 16:33:45;;;;;;;;;;;13.40;99.90;;;12.18;58.87;96536.63;10577132;28;1989;-77
2021/09/30 16:38:49;;;;;;;;;;;13.40;99.90;;;12.05;59.64;96532.56;10568252;28;1971;-78
2021/09/30 16:43:52;;;;;;;;;;;13.20;99.90;;;11.94;59.74;96527.38;10565803;28;1735;-78
2021/09/30 16:48:55;;;;;;;;;;;13.10;99.90;;;11.77;60.63;96533.78;10551656;28;1905;-77
2021/09/30 16:53:57;;;;;;;;;;;13.00;99.90;;;11.60;61.80;96535.81;10558637;28;1989;-78
2021/09/30 16:59:02;;;;;;;;;;;12.80;99.90;;;11.53;62.56;96536.06;10581276;28;1784;-79
2021/09/30 17:04:05;;;;;;;;;;;12.70;99.90;;;11.41;62.94;96537.34;10571430;28;1910;-79
2021/09/30 17:09:08;;;;;;;;;;;12.60;99.90;;;11.27;62.46;96540.47;10567125;28;1945;-80
2021/09/30 17:14:11;;;;;;;;;;;12.50;99.90;;;11.23;63.18;96541.25;10576358;28;1998;-79
2021/09/30 17:19:14;;;;;;;;;;;12.40;99.90;;;11.11;63.31;96533.34;10546434;28;2090;-80
2021/09/30 17:24:18;;;;;;;;;;;12.30;99.90;;;11.10;62.91;96531.75;10555168;28;1927;-80
2021/09/30 17:29:23;;;;;;;;;;;12.20;99.90;;;11.01;63.88;96525.22;10547427;28;1833;-79
2021/09/30 17:34:26;;;;;;;;;;;12.10;99.90;;;10.89;64.64;96525.41;10548701;28;1916;-77
2021/09/30 17:39:29;;;;;;;;;;;12.10;99.90;;;10.79;66.30;96526.13;10543904;28;1760;-79
2021/09/30 17:44:32;;;;;;;;;;;12.00;99.90;;;10.71;67.00;96525.78;10546112;28;2011;-78
2021/09/30 17:49:35;;;;;;;;;;;11.90;99.90;;;10.67;67.59;96527.34;10537606;28;1865;-80
2021/09/30 17:54:37;;;;;;;;;;;11.80;99.90;;;10.65;68.59;96521.44;10538031;28;1890;-80
2021/09/30 17:59:40;;;;;;;;;;;11.80;99.90;;;10.62;69.37;96525.41;10543440;28;1974;-81
2021/09/30 18:04:43;;;;;;;;;;;11.80;99.90;;;10.53;69.41;96543.91;10541679;28;1907;-82
2021/09/30 18:09:46;;;;;;;;;;;11.70;99.90;;;10.33;71.79;96548.25;10538976;28;1928;-81
2021/09/30 18:14:49;;;;;;;;;;;11.60;99.90;;;10.17;72.97;96548.06;10527577;28;1917;-75
2021/09/30 18:19:52;;;;;;;;;;;11.40;99.90;;;10.12;73.34;96548.03;10532172;28;1914;-79
2021/09/30 18:25:14;;;;;;;;;;;11.30;99.90;;;10.06;74.70;96542.84;10560557;28;1732;-78
2021/09/30 18:30:17;;;;;;;;;;;11.30;99.90;;;10.05;75.30;96543.88;10548102;28;1850;-81
2021/09/30 18:35:20;;;;;;;;;;;11.20;99.90;;;10.01;74.78;96543.59;10540260;28;1909;-80
2021/09/30 18:40:23;;;;;;;;;;;11.20;99.90;;;9.99;75.25;96537.66;10535073;28;1911;-80
2021/09/30 18:45:26;;;;;;;;;;;11.20;99.90;;;9.89;76.50;96532.97;10540880;28;1815;-78
2021/09/30 18:50:29;;;;;;;;;;;11.10;99.90;;;9.86;77.02;96541.53;10538924;28;2311;-81
2021/09/30 18:55:32;;;;;;;;;;;11.10;99.90;;;9.89;75.71;96537.53;10545129;28;1939;-82
2021/09/30 19:00:35;;;;;;;;;;;11.00;99.90;;;9.86;75.88;96540.69;10537242;28;1861;-79
2021/09/30 19:05:38;;;;;;;;;;;11.00;99.90;;;9.82;76.15;96534.22;10532464;28;1911;-80
2021/09/30 19:10:40;;;;;;;;;;;11.00;99.90;;;9.65;77.65;96540.44;10529491;28;1814;-78
2021/09/30 19:15:43;;;;;;;;;;;10.90;99.90;;;9.60;78.02;96532.31;10527605;28;1918;-78
2021/09/30 19:20:46;;;;;;;;;;;10.80;99.90;;;9.49;79.64;96533.28;10534524;28;1887;-78
2021/09/30 19:25:49;;;;;;;;;;;10.70;99.90;;;9.41;80.26;96531.81;10523578;28;1928;-75
2021/09/30 19:30:54;;;;;;;;;;;10.70;99.90;;;9.35;80.35;96531.97;10522864;28;1927;-76
2021/09/30 19:35:57;;;;;;;;;;;10.60;99.90;;;9.32;79.97;96537.84;10524003;28;2009;-76
2021/09/30 19:41:00;;;;;;;;;;;10.50;99.90;;;9.28;79.69;96534.03;10527515;28;1976;-77
2021/09/30 19:46:06;;;;;;;;;;;10.40;99.90;;;9.28;80.76;96536.72;10527691;28;1775;-76
2021/09/30 19:51:09;;;;;;;;;;;10.40;99.90;;;9.26;79.90;96536.16;10520922;28;2081;-76
2021/09/30 19:56:16;;;;;;;;;;;10.40;99.90;;;9.09;81.41;96544.22;10525475;28;1935;-77
2021/09/30 20:01:20;;;;;;;;;;;10.30;99.90;;;9.19;81.39;96539.81;10534859;28;1971;-79
2021/09/30 20:06:24;;;;;;;;;;;10.30;99.90;;;9.16;81.70;96534.97;10529533;28;1934;-77
2021/09/30 20:11:28;;;;;;;;;;;10.30;99.90;;;9.12;82.55;96544.53;10531916;28;1891;-80
2021/09/30 20:16:30;;;;;;;;;;;10.30;99.90;;;8.99;83.96;96539.50;10525180;28;1996;-78
2021/09/30 20:21:33;;;;;;;;;;;10.20;99.90;;;8.98;84.94;96543.25;10532010;28;1911;-79
2021/09/30 20:26:37;;;;;;;;;;;10.20;99.90;;;8.90;86.09;96535.59;10537614;28;1816;-78
2021/09/30 20:31:40;;;;;;;;;;;10.10;99.90;;;8.96;85.79;96536.50;10541349;28;2022;-80
2021/09/30 20:36:43;;;;;;;;;;;10.10;99.90;;;8.87;86.74;96528.88;10539515;28;1980;-79
2021/09/30 20:41:46;;;;;;;;;;;10.00;99.90;;;8.84;87.71;96523.16;10543876;28;1871;-80
2021/09/30 20:46:49;;;;;;;;;;;10.00;99.90;;;8.82;87.58;96518.06;10542721;28;1947;-79
2021/09/30 20:51:51;;;;;;;;;;;10.00;99.90;;;8.82;87.59;96519.94;10541767;28;1915;-79
2021/09/30 20:56:55;;;;;;;;;;;10.00;99.90;;;8.88;86.71;96524.31;10535868;28;1917;-78
2021/09/30 21:01:58;;;;;;;;;;;10.00;99.90;;;8.87;86.14;96509.28;10539504;28;1934;-79
2021/09/30 21:07:01;;;;;;;;;;;10.00;99.90;;;8.82;85.35;96506.53;10541417;28;1716;-79
2021/09/30 21:12:03;;;;;;;;;;;10.00;99.90;;;8.73;86.50;96513.38;10539250;28;1927;-79
2021/09/30 21:17:06;;;;;;;;;;;9.90;99.90;;;8.72;86.22;96509.06;10535426;28;2109;-79
2021/09/30 21:22:10;;;;;;;;;;;9.90;99.90;;;8.70;85.55;96503.09;10533759;28;1853;-79
2021/09/30 21:27:13;;;;;;;;;;;9.90;99.90;;;8.71;86.45;96505.53;10537069;28;1936;-79
2021/09/30 21:32:16;;;;;;;;;;;9.90;99.90;;;8.63;86.00;96501.41;10535424;28;1885;-79
2021/09/30 21:37:19;;;;;;;;;;;9.80;99.90;;;8.47;87.28;96499.53;10536382;28;1980;-79
2021/09/30 21:42:22;;;;;;;;;;;9.70;99.90;;;8.40;88.40;96498.88;10550299;28;1915;-79
2021/09/30 21:47:24;;;;;;;;;;;9.70;99.90;;;8.41;89.28;96497.81;10538277;28;1933;-79
2021/09/30 21:52:27;;;;;;;;;;;9.70;99.90;;;8.42;88.52;96495.97;10537558;28;1869;-79
2021/09/30 21:57:30;;;;;;;;;;;9.70;99.90;;;8.34;89.18;96497.94;10541552;28;1979;-79
2021/09/30 22:02:33;;;;;;;;;;;9.60;99.90;;;8.33;89.19;96501.69;10540883;28;1955;-79
2021/09/30 22:07:36;;;;;;;;;;;9.60;99.90;;;8.21;90.22;96500.94;10531382;28;1876;-79
2021/09/30 22:12:39;;;;;;;;;;;9.50;99.90;;;8.32;89.94;96494.69;10534401;28;1984;-79
2021/09/30 22:17:42;;;;;;;;;;;9.50;99.90;;;8.29;90.25;96494.38;10530583;28;2073;-79
2021/09/30 22:22:45;;;;;;;;;;;9.50;99.90;;;8.29;90.50;96486.34;10535555;28;1886;-80
2021/09/30 22:27:48;;;;;;;;;;;9.40;99.90;;;8.28;90.27;96484.72;10531536;28;2165;-79
2021/09/30 22:32:51;;;;;;;;;;;9.40;99.90;;;8.15;90.78;96490.38;10534021;28;1912;-79
2021/09/30 22:37:53;;;;;;;;;;;9.40;99.90;;;8.18;91.14;96477.28;10532169;28;1910;-78
2021/09/30 22:42:56;;;;;;;;;;;9.40;99.90;;;8.16;92.12;96470.56;10534945;28;1849;-78
2021/09/30 22:47:59;;;;;;;;;;;9.30;99.90;;;8.21;91.70;96468.78;10530168;28;1878;-79
2021/09/30 22:53:02;;;;;;;;;;;9.40;99.90;;;8.27;90.81;96464.31;10524301;28;1880;-78
2021/09/30 22:58:05;;;;;;;;;;;9.40;99.90;;;8.19;92.07;96456.69;10529453;28;1961;-79
2021/09/30 23:03:08;;;;;;;;;;;9.40;99.90;;;8.13;91.87;96456.59;10534354;28;1872;-77
2021/09/30 23:08:10;;;;;;;;;;;9.30;99.90;;;8.07;92.62;96465.59;10531962;28;1856;-78
2021/09/30 23:13:13;;;;;;;;;;;9.30;99.90;;;8.09;93.83;96460.81;10530656;28;1963;-77
2021/09/30 23:18:17;;;;;;;;;;;9.30;99.90;;;8.05;93.90;96464.22;10535055;28;1953;-79
2021/09/30 23:23:20;;;;;;;;;;;9.30;99.90;;;8.04;94.45;96463.41;10546325;28;1896;-79
2021/09/30 23:28:23;;;;;;;;;;;9.30;99.90;;;8.02;95.25;96448.66;10536246;28;1922;-79
2021/09/30 23:33:26;;;;;;;;;;;9.30;99.90;;;8.04;95.26;96441.16;10538102;28;1914;-80
2021/09/30 23:38:28;;;;;;;;;;;9.20;99.90;;;7.93;95.49;96445.53;10546111;28;1890;-79
2021/09/30 23:43:31;;;;;;;;;;;9.20;99.90;;;7.84;96.51;96455.81;10540014;28;1916;-80
2021/09/30 23:48:34;;;;;;;;;;;9.10;99.90;;;7.74;97.10;96454.81;10533257;28;2005;-79
2021/09/30 23:53:37;;;;;;;;;;;9.00;99.90;;;7.61;97.60;96447.88;10540549;28;1940;-79
2021/09/30 23:58:40;;;;;;;;;;;8.90;99.90;;;7.66;99.82;96449.84;10538097;28;1909;-80
